Time;durP1;ratioP1;P1;durP2;ratioP2;P2;SDS_P1;SDS_P2;PMS_P1;PMS_P2;Temp;Humidity;BMP_temperature;BMP_pressure;BME280_temperature;BME280_humidity;BME280_pressure;Samples;Min_cycle;Max_cycle;Signal;HPM_P1;HPM_P2
2022/08/24 00:03:35;;;;;;;5.85;5.35;;;;;;;19.51;100.00;101414.28;20717131;28;20094;-73
2022/08/24 00:13:37;;;;;;;5.70;5.20;;;;;;;19.50;100.00;101412.56;20716336;28;20053;-73
2022/08/24 00:23:40;;;;;;;5.47;4.97;;;;;;;19.50;100.00;101411.72;20716621;28;20050;-73
2022/08/24 00:33:41;;;;;;;5.35;4.85;;;;;;;19.51;100.00;101427.78;20713759;28;20069;-73
2022/08/24 00:44:00;;;;;;;5.18;4.68;;;;;;;19.49;100.00;101413.56;20714864;28;20550;-72
2022/08/24 00:54:10;;;;;;;4.95;4.55;;;;;;;19.49;100.00;101416.28;20711714;28;20046;-73
2022/08/24 01:04:15;;;;;;;5.00;4.60;;;;;;;19.49;100.00;101416.28;20710597;28;20034;-73
2022/08/24 01:14:18;;;;;;;5.50;5.00;;;;;;;19.28;100.00;101387.44;20708758;28;20050;-72
2022/08/24 01:24:20;;;;;;;5.45;5.05;;;;;;;19.16;100.00;101366.91;20695601;28;20042;-73
2022/08/24 01:34:22;;;;;;;5.18;4.75;;;;;;;19.48;100.00;101425.34;20712104;28;20128;-73
2022/08/24 01:44:28;;;;;;;5.53;5.03;;;;;;;19.47;100.00;101429.06;20711726;28;20128;-73
2022/08/24 01:54:32;;;;;;;5.38;4.88;;;;;;;19.47;100.00;101433.56;20710901;28;20119;-72
2022/08/24 02:04:35;;;;;;;5.18;4.78;;;;;;;19.37;100.00;101426.28;20707854;28;20411;-73
2022/08/24 02:14:37;;;;;;;5.28;4.82;;;;;;;19.45;100.00;101441.84;20694103;28;20403;-75
2022/08/24 02:24:39;;;;;;;5.57;5.07;;;;;;;19.46;100.00;101448.94;20694112;28;20494;-75
2022/08/24 02:34:42;;;;;;;5.22;4.82;;;;;;;19.45;100.00;101441.84;20660278;28;20056;-75
2022/08/24 02:44:44;;;;;;;6.60;4.68;;;;;;;19.40;100.00;101433.25;20713489;28;20042;-75
2022/08/24 02:54:50;;;;;;;4.97;4.45;;;;;;;19.51;100.00;101449.41;20677521;28;20046;-75
2022/08/24 03:04:52;;;;;;;4.80;4.40;;;;;;;19.05;100.00;101369.69;20680593;28;20038;-75
2022/08/24 03:14:54;;;;;;;5.55;4.78;;;;;;;19.54;100.00;101456.34;20690785;28;20124;-76
2022/08/24 03:24:56;;;;;;;5.30;4.80;;;;;;;19.54;100.00;101446.41;20664877;28;20405;-76
2022/08/24 03:34:58;;;;;;;5.10;4.60;;;;;;;19.55;100.00;101447.25;20718403;28;20050;-76
2022/08/24 03:45:00;;;;;;;5.18;4.68;;;;;;;19.56;100.00;101443.56;20715225;28;20056;-76
2022/08/24 03:55:04;;;;;;;4.97;4.47;;;;;;;19.56;100.00;101449.84;20716973;28;20085;-80
2022/08/24 04:05:07;;;;;;;4.80;4.38;;;;;;;19.58;100.00;101451.56;20721750;28;20108;-76
2022/08/24 04:15:10;;;;;;;5.65;5.15;;;;;;;19.55;100.00;101445.44;20692687;28;20060;-76
2022/08/24 04:25:13;;;;;;;4.57;4.17;;;;;;;19.56;100.00;101460.66;20663612;28;20517;-76
2022/08/24 04:35:15;;;;;;;4.53;4.13;;;;;;;19.57;100.00;101461.47;20680937;28;20422;-76
2022/08/24 04:45:17;;;;;;;4.40;4.00;;;;;;;19.48;100.00;101465.00;20685289;28;20139;-75
2022/08/24 04:55:18;;;;;;;4.50;3.97;;;;;;;19.56;100.00;101490.34;20684433;28;20403;-75
2022/08/24 05:05:20;;;;;;;4.45;4.10;;;;;;;19.56;100.00;101493.06;20736019;28;20053;-75
2022/08/24 05:15:22;;;;;;;4.70;4.30;;;;;;;19.47;100.00;101483.06;20768704;28;20558;-75
2022/08/24 05:25:23;;;;;;;4.70;4.30;;;;;;;19.55;100.00;101502.16;20757962;28;20143;-75
2022/08/24 05:35:25;;;;;;;4.68;4.28;;;;;;;19.53;100.00;101500.56;20690167;28;20058;-75
2022/08/24 05:45:27;;;;;;;4.55;4.15;;;;;;;19.56;100.00;101506.56;20712379;28;20057;-80
2022/08/24 05:55:31;;;;;;;4.57;4.18;;;;;;;19.56;100.00;101502.97;20694773;28;20057;-77
2022/08/24 06:05:33;;;;;;;4.50;4.10;;;;;;;19.56;100.00;101503.84;20719374;28;20045;-75
2022/08/24 06:15:37;;;;;;;4.50;4.10;;;;;;;19.48;100.00;101500.09;20781291;28;20050;-75
2022/08/24 06:36:00;;;;;;;4.40;4.00;;;;;;;19.58;100.00;101532.56;20706462;28;20049;-75
2022/08/24 06:46:04;;;;;;;5.40;4.90;;;;;;;19.56;100.00;101536.25;20718865;28;20050;-74
2022/08/24 06:56:13;;;;;;;6.97;6.38;;;;;;;19.58;100.00;101538.81;20786551;28;20049;-75
2022/08/24 07:06:17;;;;;;;6.85;6.25;;;;;;;19.59;100.00;101539.69;20766765;28;20049;-74
2022/08/24 07:16:19;;;;;;;6.90;6.00;;;;;;;19.62;100.00;101550.22;20723054;28;20056;-74
2022/08/24 07:26:27;;;;;;;5.78;5.20;;;;;;;19.63;100.00;101549.25;20676000;28;20526;-74
2022/08/24 07:36:29;;;;;;;6.82;6.22;;;;;;;19.65;100.00;101555.38;20683144;28;20046;-74
2022/08/24 07:46:31;;;;;;;6.03;5.43;;;;;;;19.60;100.00;101563.84;20672273;28;20042;-74
2022/08/24 07:56:33;;;;;;;5.00;4.50;;;;;;;19.70;100.00;101574.72;20683579;28;20070;-74
2022/08/24 08:06:36;;;;;;;3.90;3.55;;;;;;;19.62;100.00;101583.47;20681925;28;20054;-74
2022/08/24 08:16:38;;;;;;;3.85;3.55;;;;;;;19.72;100.00;101588.97;20675069;28;20045;-74
2022/08/24 08:26:40;;;;;;;4.88;4.40;;;;;;;19.75;100.00;101593.25;20683807;28;20050;-73
2022/08/24 08:37:05;;;;;;;4.20;3.80;;;;;;;19.79;100.00;101598.25;20677925;28;20523;-75
2022/08/24 08:47:10;;;;;;;4.18;3.75;;;;;;;19.85;100.00;101611.22;20676154;28;20100;-74
2022/08/24 08:57:34;;;;;;;4.07;3.60;;;;;;;19.90;100.00;101612.69;20691515;28;20050;-74
2022/08/24 09:07:48;;;;;;;3.58;3.25;;;;;;;19.93;100.00;101612.47;20681240;28;20046;-74
2022/08/24 09:18:11;;;;;;;3.13;2.90;;;;;;;19.94;100.00;101609.63;20660207;28;20061;-75
2022/08/24 09:28:20;;;;;;;3.63;3.30;;;;;;;19.80;100.00;101591.84;20674239;28;20049;-76
2022/08/24 09:38:49;;;;;;;2.88;2.67;;;;;;;19.94;100.00;101603.38;20667950;28;21458;-75
2022/08/24 09:49:23;;;;;;;3.00;2.80;;;;;;;19.93;100.00;101609.75;20674718;28;20597;-76
2022/08/24 09:59:52;;;;;;;3.67;2.63;;;;;;;19.91;100.00;101618.00;20699364;28;20060;-75
2022/08/24 10:10:15;;;;;;;2.80;2.60;;;;;;;19.91;100.00;101617.16;20729340;28;20092;-79
2022/08/24 10:20:28;;;;;;;2.58;2.38;;;;;;;19.80;100.00;101585.59;20752642;28;20493;-76
2022/08/24 10:30:44;;;;;;;2.85;2.65;;;;;;;19.89;100.00;101594.78;20720954;28;20041;-76
2022/08/24 10:41:23;;;;;;;3.85;2.55;;;;;;;19.91;100.00;101592.81;20743571;28;20045;-76
2022/08/24 10:51:55;;;;;;;2.67;2.47;;;;;;;19.90;100.00;101581.16;20766832;28;20118;-76
2022/08/24 11:02:05;;;;;;;2.60;2.40;;;;;;;19.91;100.00;101582.84;20749984;28;20073;-75
2022/08/24 11:12:29;;;;;;;2.50;2.30;;;;;;;19.92;100.00;101578.31;20738378;28;20052;-76
2022/08/24 11:22:56;;;;;;;3.35;2.47;;;;;;;19.66;100.00;101536.31;20730436;28;20060;-75
2022/08/24 11:33:03;;;;;;;2.40;2.20;;;;;;;19.96;100.00;101568.97;20709781;28;20050;-75
2022/08/24 11:43:26;;;;;;;2.60;2.40;;;;;;;19.88;100.00;101560.59;20647935;28;20402;-75
2022/08/24 11:53:31;;;;;;;2.20;2.00;;;;;;;19.99;100.00;101576.78;20724805;28;20513;-75
2022/08/24 12:03:46;;;;;;;2.60;2.40;;;;;;;19.70;100.00;101518.00;20742093;28;20522;-74
2022/08/24 12:14:03;;;;;;;2.35;2.13;;;;;;;19.72;100.00;101521.44;20647631;28;20058;-75
2022/08/24 12:24:14;;;;;;;2.25;2.05;;;;;;;20.00;100.00;101567.69;20704226;28;20052;-75
2022/08/24 12:34:39;;;;;;;2.22;2.08;;;;;;;19.99;100.00;101566.81;20664065;28;20077;-75
2022/08/24 12:44:47;;;;;;;;;;;;;;;19.99;100.00;101560.59;20678391;28;20054;-76
2022/08/24 12:55:21;;;;;;;4.70;2.13;;;;;;;19.99;100.00;101552.47;20676281;28;19922;-75
2022/08/24 13:05:23;;;;;;;2.23;2.10;;;;;;;20.00;100.00;101563.13;20677016;28;20079;-76
2022/08/24 13:15:28;;;;;;;2.33;2.13;;;;;;;20.00;100.00;101551.47;20760386;28;20060;-75
2022/08/24 13:25:50;;;;;;;2.10;1.90;;;;;;;19.99;100.00;101547.91;20780464;28;20045;-76
2022/08/24 13:35:57;;;;;;;2.10;1.90;;;;;;;19.73;100.00;101497.97;20771644;28;20555;-75
2022/08/24 13:46:11;;;;;;;5.13;1.90;;;;;;;19.95;100.00;101529.41;20677425;28;20434;-75
2022/08/24 13:56:27;;;;;;;2.45;1.70;;;;;;;20.02;100.00;101549.50;20734927;28;20045;-76
2022/08/24 14:06:39;;;;;;;1.98;1.77;;;;;;;20.01;100.00;101550.50;20716989;28;20057;-75
2022/08/24 14:27:38;;;;;;;1.70;1.60;;;;;;;20.02;100.00;101530.59;20694111;28;20554;-81
2022/08/24 14:38:04;;;;;;;1.90;1.70;;;;;;;20.02;100.00;101530.59;20680002;28;20533;-76
2022/08/24 14:48:24;;;;;;;2.30;1.70;;;;;;;19.31;100.00;101404.34;20735962;28;20144;-78
2022/08/24 14:58:40;;;;;;;1.60;1.50;;;;;;;20.00;100.00;101516.34;20669917;28;20053;-75
2022/08/24 15:08:42;;;;;;;2.10;1.73;;;;;;;19.99;100.00;101509.22;20669565;28;20050;-74
2022/08/24 15:19:00;;;;;;;1.85;1.52;;;;;;;19.90;100.00;101501.91;20747379;28;20053;-73
2022/08/24 15:29:18;;;;;;;1.83;1.50;;;;;;;19.99;100.00;101503.81;20750025;28;20088;-73
2022/08/24 15:39:24;;;;;;;1.80;1.70;;;;;;;20.00;100.00;101500.13;20752886;28;20128;-74
2022/08/24 15:49:49;;;;;;;2.78;1.80;;;;;;;20.00;100.00;101495.56;20743496;28;20049;-73
2022/08/24 15:59:54;;;;;;;24.17;11.13;;;;;;;19.95;100.00;101486.19;20743901;28;20707;-74
2022/08/24 16:10:10;;;;;;;15.70;7.50;;;;;;;20.13;100.00;101499.91;20665310;28;20133;-75
2022/08/24 16:20:21;;;;;;;14.52;5.97;;;;;;;20.19;100.00;101499.34;20682692;28;20312;-75
2022/08/24 16:30:27;;;;;;;13.93;6.18;;;;;;;20.12;100.00;101482.81;20675877;28;20053;-75
2022/08/24 16:40:31;;;;;;;13.65;5.05;;;;;;;20.17;100.00;101478.84;20656005;28;20153;-75
2022/08/24 16:50:33;;;;;;;8.40;5.07;;;;;;;20.19;100.00;101475.03;20748217;28;20107;-76
2022/08/24 17:00:35;;;;;;;9.85;4.40;;;;;;;20.22;100.00;101487.41;20751615;28;20050;-75
2022/08/24 17:10:37;;;;;;;8.48;4.43;;;;;;;20.19;100.00;101493.06;20670475;28;20497;-75
2022/08/24 17:20:39;;;;;;;7.78;4.13;;;;;;;20.16;100.00;101504.16;20679458;28;20128;-74
2022/08/24 17:30:41;;;;;;;8.57;4.13;;;;;;;20.13;100.00;101498.03;20688708;28;20701;-75
2022/08/24 17:40:42;;;;;;;5.78;3.65;;;;;;;20.12;100.00;101501.75;20676321;28;20057;-75
2022/08/24 17:50:44;;;;;;;7.35;3.85;;;;;;;20.11;100.00;101501.91;20660807;28;20073;-75
2022/08/24 18:00:46;;;;;;;6.07;3.30;;;;;;;20.12;100.00;101509.00;20686443;28;20046;-76
2022/08/24 18:10:47;;;;;;;5.35;3.88;;;;;;;20.12;100.00;101520.66;20688546;28;20050;-76
2022/08/24 18:20:49;;;;;;;5.60;2.88;;;;;;;20.14;100.00;101524.09;20688865;28;20049;-75
2022/08/24 18:30:51;;;;;;;3.53;2.60;;;;;;;20.00;100.00;101516.34;20676216;28;20054;-75
2022/08/24 18:40:52;;;;;;;3.63;2.53;;;;;;;20.00;100.00;101521.75;20690970;28;20777;-76
2022/08/24 18:50:55;;;;;;;6.25;2.85;;;;;;;20.11;100.00;101551.38;20700451;28;20054;-75
2022/08/24 19:00:57;;;;;;;6.15;3.05;;;;;;;20.04;100.00;101542.13;20678610;28;20518;-74
2022/08/24 19:10:59;;;;;;;5.53;2.70;;;;;;;20.09;100.00;101566.00;20699550;28;20055;-74
2022/08/24 19:21:00;;;;;;;3.50;2.80;;;;;;;19.85;100.00;101546.38;20709058;28;20750;-75
2022/08/24 19:31:03;;;;;;;4.05;3.22;;;;;;;19.93;100.00;101570.06;20717991;28;20056;-75
2022/08/24 19:41:06;;;;;;;4.55;2.80;;;;;;;20.00;100.00;101584.75;20700389;28;20078;-75
2022/08/24 19:51:13;;;;;;;4.18;3.00;;;;;;;19.74;100.00;101554.56;20718547;28;20054;-75
2022/08/24 20:01:23;;;;;;;4.00;2.90;;;;;;;19.79;100.00;101562.28;20701024;28;20056;-75
2022/08/24 20:11:25;;;;;;;3.90;2.85;;;;;;;19.79;100.00;101568.53;20716504;28;20058;-75
2022/08/24 20:21:27;;;;;;;3.80;3.17;;;;;;;19.69;100.00;101551.41;20683319;28;20072;-75
2022/08/24 20:31:30;;;;;;;5.03;2.90;;;;;;;19.94;100.00;101584.44;20714009;28;20108;-75
2022/08/24 20:41:32;;;;;;;4.70;3.35;;;;;;;19.92;100.00;101589.13;20708224;28;20479;-75
2022/08/24 20:51:34;;;;;;;3.78;2.88;;;;;;;19.91;100.00;101582.84;20713086;28;20062;-75
2022/08/24 21:01:41;;;;;;;3.97;3.08;;;;;;;19.90;100.00;101585.69;20715812;28;20133;-75
2022/08/24 21:11:45;;;;;;;4.87;3.60;;;;;;;19.89;100.00;101584.81;20714476;28;20472;-75
2022/08/24 21:21:46;;;;;;;4.05;3.45;;;;;;;19.89;100.00;101586.66;20714053;28;20140;-74
2022/08/24 21:42:25;;;;;;;3.40;3.10;;;;;;;19.87;100.00;101570.56;20655756;28;20479;-75
2022/08/24 21:52:27;;;;;;;3.88;3.30;;;;;;;19.85;100.00;101575.25;20728559;28;20054;-75
2022/08/24 22:02:29;;;;;;;4.03;3.65;;;;;;;19.85;100.00;101584.19;20726899;28;20406;-75
2022/08/24 22:12:30;;;;;;;3.78;3.47;;;;;;;19.84;100.00;101587.06;20727807;28;20078;-75
2022/08/24 22:22:32;;;;;;;3.83;3.35;;;;;;;19.61;100.00;101545.81;20726776;28;20046;-75
2022/08/24 22:32:34;;;;;;;4.53;3.05;;;;;;;19.82;100.00;101562.84;20726065;28;20052;-75
2022/08/24 22:42:36;;;;;;;4.00;3.42;;;;;;;19.80;100.00;101548.63;20724853;28;20050;-75
2022/08/24 22:52:37;;;;;;;5.45;3.63;;;;;;;19.80;100.00;101548.63;20723917;28;20054;-75
2022/08/24 23:02:39;;;;;;;3.45;3.15;;;;;;;19.80;100.00;101548.63;20721810;28;20056;-75
2022/08/24 23:12:40;;;;;;;4.10;3.03;;;;;;;19.78;100.00;101553.31;20721622;28;20054;-75
2022/08/24 23:22:42;;;;;;;3.38;3.08;;;;;;;19.79;100.00;101562.28;20722246;28;20068;-75
2022/08/24 23:32:44;;;;;;;3.40;2.97;;;;;;;19.77;100.00;101559.69;20719739;28;20050;-75
2022/08/24 23:42:45;;;;;;;3.60;3.30;;;;;;;19.77;100.00;101553.47;20718710;28;20053;-75
2022/08/24 23:52:47;;;;;;;3.33;3.03;;;;;;;19.75;100.00;101548.16;20719660;28;20053;-75
